createdAt,value
2023-04-23T00:01:48.180Z,11.80
2023-04-23T00:04:18.289Z,11.38
2023-04-23T00:06:48.120Z,10.60
2023-04-23T00:09:16.945Z,10.45
2023-04-23T00:11:43.759Z,8.55
2023-04-23T00:14:11.389Z,9.38
2023-04-23T00:16:39.436Z,10.25
2023-04-23T00:19:06.020Z,8.35
2023-04-23T00:21:32.662Z,9.20
2023-04-23T00:23:59.281Z,8.25
2023-04-23T00:26:25.917Z,9.93
2023-04-23T00:28:52.432Z,10.75
2023-04-23T00:31:22.551Z,10.90
2023-04-23T00:33:50.047Z,10.75
2023-04-23T00:36:16.585Z,8.93
2023-04-23T00:38:43.178Z,9.43
2023-04-23T00:41:09.975Z,10.25
2023-04-23T00:43:37.504Z,11.40
2023-04-23T00:46:04.317Z,10.20
2023-04-23T00:48:32.010Z,9.25
2023-04-23T00:51:00.637Z,8.02
2023-04-23T00:53:27.428Z,8.30
2023-04-23T00:55:54.593Z,8.25
2023-04-23T00:58:21.638Z,8.20
2023-04-23T01:00:49.188Z,8.07
2023-04-23T01:03:18.577Z,7.22
2023-04-23T01:05:45.494Z,7.82
2023-04-23T01:08:16.541Z,7.97
2023-04-23T01:10:47.498Z,8.30
2023-04-23T01:13:14.581Z,9.35
2023-04-23T01:15:41.657Z,8.80
2023-04-23T01:18:08.203Z,10.45
2023-04-23T01:20:35.788Z,8.77
2023-04-23T01:23:03.746Z,8.13
2023-04-23T01:25:30.546Z,8.95
2023-04-23T01:27:58.105Z,8.27
2023-04-23T01:30:28.444Z,8.90
2023-04-23T01:32:56.407Z,9.23
2023-04-23T01:35:23.871Z,8.05
2023-04-23T01:37:52.606Z,8.43
2023-04-23T01:40:20.341Z,7.03
2023-04-23T01:42:48.194Z,6.78
2023-04-23T01:45:14.701Z,6.35
2023-04-23T01:47:42.097Z,6.10
2023-04-23T01:50:09.584Z,6.70
2023-04-23T01:52:36.533Z,6.22
2023-04-23T01:55:03.608Z,6.65
2023-04-23T01:57:30.511Z,6.25
2023-04-23T02:00:08.237Z,7.00
2023-04-23T02:02:35.846Z,7.20
2023-04-23T02:05:04.741Z,6.30
2023-04-23T02:07:32.727Z,6.53
2023-04-23T02:09:59.563Z,6.55
2023-04-23T02:12:26.331Z,6.50
2023-04-23T02:14:54.605Z,6.70
2023-04-23T02:17:22.873Z,6.72
2023-04-23T02:19:50.068Z,6.45
2023-04-23T02:22:17.942Z,5.50
2023-04-23T02:24:44.592Z,5.50
2023-04-23T02:27:11.329Z,6.25
2023-04-23T02:29:38.002Z,6.65
2023-04-23T02:32:04.653Z,5.72
2023-04-23T02:34:31.187Z,5.18
2023-04-23T02:36:57.772Z,5.25
2023-04-23T02:39:24.362Z,5.20
2023-04-23T02:41:50.987Z,5.60
2023-04-23T02:44:17.556Z,5.75
2023-04-23T02:46:44.143Z,5.47
2023-04-23T02:49:10.743Z,5.85
2023-04-23T02:51:37.256Z,6.13
2023-04-23T02:54:04.155Z,5.80
2023-04-23T02:56:30.838Z,6.50
2023-04-23T02:58:58.446Z,6.18
2023-04-23T03:01:25.127Z,5.22
2023-04-23T03:03:51.918Z,6.63
2023-04-23T03:06:18.749Z,6.10
2023-04-23T03:08:46.057Z,7.10
2023-04-23T03:11:12.614Z,6.70
2023-04-23T03:13:39.118Z,5.78
2023-04-23T03:16:06.160Z,6.00
2023-04-23T03:18:32.811Z,7.10
2023-04-23T03:21:00.193Z,6.15
2023-04-23T03:23:26.803Z,6.70
2023-04-23T03:25:53.311Z,6.45
2023-04-23T03:28:19.857Z,6.20
2023-04-23T03:30:46.472Z,6.88
2023-04-23T03:33:12.994Z,5.85
2023-04-23T03:35:39.524Z,5.57
2023-04-23T03:38:06.382Z,5.90
2023-04-23T03:40:32.922Z,6.78
2023-04-23T03:42:59.764Z,6.30
2023-04-23T03:45:26.684Z,6.60
2023-04-23T03:47:53.224Z,5.65
2023-04-23T03:50:19.814Z,5.40
2023-04-23T03:52:46.345Z,5.72
2023-04-23T03:55:13.180Z,6.65
2023-04-23T03:57:39.683Z,6.07
2023-04-23T04:00:11.897Z,6.13
2023-04-23T04:02:39.535Z,5.60
2023-04-23T04:05:06.886Z,5.55
2023-04-23T04:07:34.373Z,5.55
2023-04-23T04:10:03.156Z,5.57
2023-04-23T04:12:29.738Z,5.35
2023-04-23T04:14:56.437Z,5.82
2023-04-23T04:17:22.995Z,5.93
2023-04-23T04:19:49.570Z,6.50
2023-04-23T04:22:16.253Z,6.20
2023-04-23T04:24:43.820Z,6.25
2023-04-23T04:27:11.672Z,6.57
2023-04-23T04:29:40.769Z,6.75
2023-04-23T04:32:09.306Z,6.18
2023-04-23T04:34:38.346Z,6.75
2023-04-23T04:37:05.319Z,6.43
2023-04-23T04:39:31.849Z,6.07
2023-04-23T04:41:59.946Z,6.68
2023-04-23T04:44:26.539Z,5.47
2023-04-23T04:46:53.869Z,5.47
2023-04-23T04:49:21.817Z,5.60
2023-04-23T04:51:48.415Z,6.18
2023-04-23T04:54:15.030Z,5.97
2023-04-23T04:56:41.505Z,6.30
2023-04-23T04:59:08.144Z,5.15
2023-04-23T05:01:35.027Z,5.50
2023-04-23T05:04:01.843Z,4.82
2023-04-23T05:06:28.838Z,5.13
2023-04-23T05:08:55.616Z,4.72
2023-04-23T05:11:22.158Z,5.15
2023-04-23T05:13:48.982Z,5.43
2023-04-23T05:16:15.782Z,4.63
2023-04-23T05:18:42.655Z,4.63
2023-04-23T05:21:09.373Z,4.70
2023-04-23T05:23:36.809Z,4.60
2023-04-23T05:26:03.996Z,4.43
2023-04-23T05:28:31.339Z,4.22
2023-04-23T05:30:58.524Z,3.40
2023-04-23T05:33:30.719Z,3.53
2023-04-23T05:36:00.183Z,3.17
2023-04-23T05:38:26.915Z,3.05
2023-04-23T05:40:53.496Z,2.90
2023-04-23T05:43:20.179Z,2.40
2023-04-23T05:45:46.742Z,2.95
2023-04-23T05:48:13.339Z,3.20
2023-04-23T05:50:39.958Z,2.65
2023-04-23T05:53:06.631Z,2.60
2023-04-23T05:55:33.229Z,2.58
2023-04-23T05:57:59.839Z,2.88
2023-04-23T06:00:26.510Z,2.40
2023-04-23T06:02:53.419Z,2.72
2023-04-23T06:05:20.847Z,3.38
2023-04-23T06:07:47.616Z,2.67
2023-04-23T06:10:14.234Z,2.92
2023-04-23T06:12:42.230Z,3.15
2023-04-23T06:15:10.317Z,3.05
2023-04-23T06:17:37.697Z,3.35
2023-04-23T06:20:05.195Z,3.20
2023-04-23T06:22:32.622Z,2.95
2023-04-23T06:24:59.231Z,3.70
2023-04-23T06:27:27.169Z,3.85
2023-04-23T06:29:53.916Z,3.80
2023-04-23T06:32:21.384Z,3.55
2023-04-23T06:35:00.235Z,2.80
2023-04-23T06:37:29.710Z,3.20
2023-04-23T06:39:56.479Z,2.80
2023-04-23T06:42:23.007Z,2.20
2023-04-23T06:44:49.548Z,2.47
2023-04-23T06:47:16.071Z,2.10
2023-04-23T06:49:42.783Z,2.05
2023-04-23T06:52:09.397Z,1.80
2023-04-23T06:54:36.071Z,1.83
2023-04-23T06:57:02.652Z,2.22
2023-04-23T06:59:29.161Z,1.80
2023-04-23T07:01:55.674Z,1.60
2023-04-23T07:04:22.289Z,1.67
2023-04-23T07:06:48.809Z,1.83
2023-04-23T07:09:15.289Z,1.80
2023-04-23T07:11:42.130Z,1.20
2023-04-23T07:14:09.216Z,1.10
2023-04-23T07:16:36.174Z,1.25
2023-04-23T07:19:02.763Z,1.40
2023-04-23T07:21:29.667Z,1.20
2023-04-23T07:24:00.762Z,1.30
2023-04-23T07:26:28.049Z,1.00
2023-04-23T07:28:54.699Z,1.05
2023-04-23T07:31:21.995Z,0.80
2023-04-23T07:33:48.587Z,1.33
2023-04-23T07:36:15.444Z,0.98
2023-04-23T07:38:44.133Z,0.75
2023-04-23T07:41:10.699Z,0.80
2023-04-23T07:43:38.730Z,0.80
2023-04-23T07:46:05.576Z,1.00
2023-04-23T07:48:32.270Z,0.70
2023-04-23T07:50:58.839Z,1.13
2023-04-23T07:53:25.476Z,0.85
2023-04-23T07:55:52.497Z,0.77
2023-04-23T07:58:19.059Z,1.15
2023-04-23T08:00:46.377Z,0.60
2023-04-23T08:03:13.104Z,0.70
2023-04-23T08:05:41.435Z,0.60
2023-04-23T08:08:08.615Z,0.52
2023-04-23T08:10:35.650Z,0.63
2023-04-23T08:13:03.051Z,0.60
2023-04-23T08:15:29.673Z,1.05
2023-04-23T08:17:56.253Z,0.60
2023-04-23T08:20:22.923Z,0.50
2023-04-23T08:22:51.496Z,0.43
2023-04-23T08:25:18.073Z,0.50
2023-04-23T08:27:44.562Z,0.47
2023-04-23T08:30:11.499Z,0.45
2023-04-23T08:32:40.722Z,0.43
2023-04-23T08:35:08.306Z,0.50
2023-04-23T08:37:34.978Z,0.50
2023-04-23T08:40:01.544Z,0.70
2023-04-23T08:42:41.325Z,0.30
2023-04-23T08:45:08.287Z,0.50
2023-04-23T08:47:36.230Z,0.45
2023-04-23T08:50:04.391Z,0.30
2023-04-23T08:52:37.215Z,0.40
2023-04-23T08:55:10.614Z,0.30
2023-04-23T08:57:41.327Z,0.27
2023-04-23T09:00:12.503Z,0.40
2023-04-23T09:02:44.098Z,0.35
2023-04-23T09:05:11.349Z,0.50
2023-04-23T09:07:38.045Z,0.60
2023-04-23T09:10:07.001Z,0.30
2023-04-23T09:12:36.533Z,0.55
2023-04-23T09:15:10.645Z,0.60
2023-04-23T09:17:41.061Z,0.40
2023-04-23T09:20:11.762Z,0.35
2023-04-23T09:22:49.042Z,0.30
2023-04-23T09:25:17.934Z,0.30
2023-04-23T09:27:46.123Z,0.35
2023-04-23T09:30:13.849Z,0.32
2023-04-23T09:32:42.531Z,0.70
2023-04-23T09:35:10.989Z,0.35
2023-04-23T09:37:37.710Z,0.38
2023-04-23T09:40:09.517Z,0.50
2023-04-23T09:42:37.317Z,0.35
2023-04-23T09:45:09.097Z,0.30
2023-04-23T09:47:39.137Z,0.70
2023-04-23T09:50:07.318Z,0.60
2023-04-23T09:52:34.142Z,0.40
2023-04-23T09:55:05.272Z,0.47
2023-04-23T09:57:38.672Z,0.40
2023-04-23T10:00:17.349Z,0.40
2023-04-23T10:02:49.156Z,0.60
2023-04-23T10:05:25.053Z,0.85
2023-04-23T10:07:57.655Z,0.40
2023-04-23T10:10:25.735Z,0.82
2023-04-23T10:12:55.779Z,0.70
2023-04-23T10:15:27.042Z,0.60
2023-04-23T10:17:55.782Z,0.60
2023-04-23T10:20:24.006Z,0.60
2023-04-23T10:22:53.589Z,0.50
2023-04-23T10:25:21.321Z,0.77
2023-04-23T10:27:54.201Z,0.57
2023-04-23T10:30:23.280Z,0.60
2023-04-23T10:32:51.426Z,0.50
2023-04-23T10:35:18.102Z,0.70
2023-04-23T10:37:46.981Z,0.38
2023-04-23T10:40:16.305Z,0.63
2023-04-23T10:42:44.389Z,0.60
2023-04-23T10:45:24.027Z,0.60
2023-04-23T10:47:54.498Z,0.60
2023-04-23T10:50:29.270Z,0.50
2023-04-23T10:52:58.853Z,0.70
2023-04-23T10:55:30.618Z,0.45
2023-04-23T10:58:04.294Z,0.45
2023-04-23T11:00:46.093Z,0.70
2023-04-23T11:03:38.805Z,0.70
2023-04-23T11:06:08.798Z,0.60
2023-04-23T11:08:36.048Z,0.60
2023-04-23T11:11:08.350Z,0.50
2023-04-23T11:13:35.068Z,0.60
2023-04-23T11:16:22.052Z,0.52
2023-04-23T11:18:59.338Z,0.88
2023-04-23T11:21:57.613Z,0.70
2023-04-23T11:24:25.054Z,0.57
2023-04-23T11:26:55.533Z,0.77
2023-04-23T11:29:24.026Z,0.40
2023-04-23T11:32:01.429Z,0.77
2023-04-23T11:34:29.632Z,0.63
2023-04-23T11:36:59.546Z,0.70
2023-04-23T11:39:27.500Z,0.65
2023-04-23T11:41:54.818Z,0.70
2023-04-23T11:44:21.738Z,0.73
2023-04-23T11:46:49.915Z,0.80
2023-04-23T11:49:20.634Z,1.00
2023-04-23T11:51:48.495Z,0.68
2023-04-23T11:54:15.250Z,0.77
2023-04-23T11:56:42.434Z,1.63
2023-04-23T11:59:09.622Z,0.80
2023-04-23T12:01:41.554Z,1.30
2023-04-23T12:04:22.448Z,0.98
2023-04-23T12:06:50.989Z,1.33
2023-04-23T12:09:19.912Z,0.88
2023-04-23T12:11:47.070Z,1.00
2023-04-23T12:14:15.250Z,0.77
2023-04-23T12:16:43.943Z,0.90
2023-04-23T12:19:14.152Z,1.58
2023-04-23T12:21:55.728Z,0.70
2023-04-23T12:24:27.579Z,1.00
2023-04-23T12:26:56.061Z,1.80
2023-04-23T12:29:23.257Z,1.00
2023-04-23T12:31:52.292Z,1.20
2023-04-23T12:34:22.009Z,1.60
2023-04-23T12:36:54.316Z,1.10
2023-04-23T12:39:35.001Z,0.80
2023-04-23T12:42:05.202Z,0.73
2023-04-23T12:44:34.727Z,0.80
2023-04-23T12:47:04.850Z,0.68
2023-04-23T12:49:32.349Z,0.70
2023-04-23T12:52:01.701Z,0.80
2023-04-23T12:54:34.145Z,1.00
2023-04-23T12:57:04.555Z,0.70
2023-04-23T12:59:32.010Z,0.80
2023-04-23T13:02:03.559Z,0.60
2023-04-23T13:04:32.374Z,1.20
2023-04-23T13:06:59.592Z,0.73
2023-04-23T13:09:28.314Z,0.90
2023-04-23T13:11:55.378Z,1.02
2023-04-23T13:14:22.037Z,1.10
2023-04-23T13:16:49.070Z,0.90
2023-04-23T13:19:17.175Z,1.40
2023-04-23T13:21:44.451Z,1.50
2023-04-23T13:24:10.993Z,1.40
2023-04-23T13:26:37.551Z,1.35
2023-04-23T13:29:04.196Z,1.10
2023-04-23T13:31:31.529Z,0.95
2023-04-23T13:33:58.546Z,1.77
2023-04-23T13:36:26.001Z,1.15
2023-04-23T13:38:52.860Z,1.40
2023-04-23T13:41:19.445Z,1.45
2023-04-23T13:43:46.060Z,1.30
2023-04-23T13:46:14.229Z,1.50
2023-04-23T13:48:41.488Z,1.02
2023-04-23T13:51:21.417Z,1.38
2023-04-23T13:53:52.969Z,1.67
2023-04-23T13:56:19.538Z,1.75
2023-04-23T13:58:48.344Z,1.77
2023-04-23T14:01:15.815Z,1.42
2023-04-23T14:03:42.460Z,1.80
2023-04-23T14:06:09.056Z,2.20
2023-04-23T14:08:36.913Z,1.80
2023-04-23T14:11:04.464Z,2.00
2023-04-23T14:13:32.805Z,2.55
2023-04-23T14:16:02.021Z,2.45
2023-04-23T14:18:30.389Z,2.00
2023-04-23T14:20:57.079Z,3.47
2023-04-23T14:23:23.802Z,2.63
2023-04-23T14:25:53.882Z,2.70
2023-04-23T14:28:40.072Z,1.35
2023-04-23T14:31:07.113Z,1.05
2023-04-23T14:33:33.671Z,2.00
2023-04-23T14:36:00.242Z,1.52
2023-04-23T14:38:26.813Z,2.17
2023-04-23T14:40:53.759Z,2.38
2023-04-23T14:43:20.314Z,1.85
2023-04-23T14:45:47.125Z,2.17
2023-04-23T14:48:13.831Z,6.82
2023-04-23T14:50:40.414Z,6.30
2023-04-23T14:53:09.971Z,2.50
2023-04-23T14:55:36.822Z,2.15
2023-04-23T14:58:03.340Z,2.25
2023-04-23T15:00:30.233Z,2.05
2023-04-23T15:02:57.010Z,1.77
2023-04-23T15:05:23.873Z,2.20
2023-04-23T15:07:51.876Z,2.38
2023-04-23T15:10:20.391Z,2.60
2023-04-23T15:13:02.323Z,2.70
2023-04-23T15:16:02.899Z,2.42
2023-04-23T15:18:29.904Z,1.95
2023-04-23T15:20:56.475Z,2.05
2023-04-23T15:23:24.186Z,2.08
2023-04-23T15:25:51.446Z,2.60
2023-04-23T15:28:18.355Z,2.70
2023-04-23T15:30:45.506Z,2.33
2023-04-23T15:33:12.022Z,1.90
2023-04-23T15:35:38.568Z,1.58
2023-04-23T15:38:05.133Z,2.53
2023-04-23T15:40:31.924Z,3.50
2023-04-23T15:42:59.155Z,2.17
2023-04-23T15:45:25.887Z,1.55
2023-04-23T15:47:52.558Z,1.45
2023-04-23T15:50:23.049Z,2.15
2023-04-23T15:52:50.530Z,1.60
2023-04-23T15:55:17.836Z,1.50
2023-04-23T15:57:44.306Z,2.03
2023-04-23T16:00:11.484Z,2.35
2023-04-23T16:02:38.162Z,1.85
2023-04-23T16:05:05.227Z,2.00
2023-04-23T16:07:31.827Z,2.03
2023-04-23T16:09:58.583Z,1.85
2023-04-23T16:12:25.194Z,2.00
2023-04-23T16:14:51.737Z,2.20
2023-04-23T16:17:18.392Z,2.22
2023-04-23T16:19:45.091Z,2.80
2023-04-23T16:22:11.831Z,3.17
2023-04-23T16:24:38.354Z,2.95
2023-04-23T16:27:06.686Z,6.82
2023-04-23T16:29:33.175Z,2.38
2023-04-23T16:32:00.150Z,1.60
2023-04-23T16:34:26.727Z,3.33
2023-04-23T16:36:53.372Z,3.75
2023-04-23T16:39:19.976Z,2.55
2023-04-23T16:41:46.988Z,3.05
2023-04-23T16:44:13.718Z,1.90
2023-04-23T16:46:40.450Z,2.35
2023-04-23T16:49:08.397Z,2.33
2023-04-23T16:51:35.024Z,1.80
2023-04-23T16:54:01.707Z,2.00
2023-04-23T16:56:28.780Z,2.10
2023-04-23T16:58:55.690Z,2.33
2023-04-23T17:01:22.787Z,1.85
2023-04-23T17:03:49.628Z,2.00
2023-04-23T17:06:25.944Z,3.40
2023-04-23T17:08:52.534Z,1.63
2023-04-23T17:11:19.153Z,1.15
2023-04-23T17:13:45.816Z,0.90
2023-04-23T17:16:12.303Z,1.13
2023-04-23T17:18:38.863Z,1.40
2023-04-23T17:21:05.630Z,1.60
2023-04-23T17:23:32.228Z,1.92
2023-04-23T17:25:59.351Z,1.17
2023-04-23T17:28:28.626Z,1.05
2023-04-23T17:30:55.980Z,1.38
2023-04-23T17:33:23.421Z,1.48
2023-04-23T17:35:55.162Z,1.42
2023-04-23T17:38:22.295Z,0.98
2023-04-23T17:40:50.210Z,1.50
2023-04-23T17:43:17.638Z,1.00
2023-04-23T17:45:45.571Z,1.25
2023-04-23T17:48:12.840Z,1.40
2023-04-23T17:50:39.447Z,1.42
2023-04-23T17:53:06.187Z,1.95
2023-04-23T17:55:33.202Z,2.00
2023-04-23T17:58:05.464Z,1.95
2023-04-23T18:00:41.781Z,2.25
2023-04-23T18:03:09.800Z,1.85
2023-04-23T18:05:36.496Z,1.67
2023-04-23T18:08:03.193Z,1.90
2023-04-23T18:10:29.958Z,1.40
2023-04-23T18:12:57.005Z,1.40
2023-04-23T18:15:25.708Z,1.65
2023-04-23T18:17:55.725Z,1.35
2023-04-23T18:20:24.857Z,1.95
2023-04-23T18:22:53.550Z,1.95
2023-04-23T18:25:20.369Z,2.05
2023-04-23T18:27:47.004Z,1.52
2023-04-23T18:30:15.340Z,2.15
2023-04-23T18:32:47.524Z,1.40
2023-04-23T18:35:14.340Z,1.77
2023-04-23T18:37:44.139Z,1.63
2023-04-23T18:40:11.509Z,2.15
2023-04-23T18:42:38.322Z,1.60
2023-04-23T18:45:05.607Z,1.95
2023-04-23T18:47:38.127Z,2.30
2023-04-23T18:50:09.800Z,2.78
2023-04-23T18:52:36.399Z,2.72
2023-04-23T18:55:03.240Z,2.13
2023-04-23T18:57:29.764Z,2.20
2023-04-23T18:59:57.051Z,1.80
2023-04-23T19:02:34.507Z,2.38
2023-04-23T19:05:01.552Z,2.00
2023-04-23T19:07:28.112Z,2.38
2023-04-23T19:09:54.801Z,2.53
2023-04-23T19:12:21.290Z,2.70
2023-04-23T19:14:47.835Z,3.60
2023-04-23T19:17:15.414Z,2.45
2023-04-23T19:19:43.447Z,3.08
2023-04-23T19:22:10.140Z,2.83
2023-04-23T19:24:37.211Z,2.33
2023-04-23T19:27:03.833Z,2.58
2023-04-23T19:29:30.466Z,2.25
2023-04-23T19:31:56.964Z,2.88
2023-04-23T19:34:23.476Z,2.00
2023-04-23T19:36:50.021Z,3.42
2023-04-23T19:39:16.477Z,2.90
2023-04-23T19:41:42.994Z,2.20
2023-04-23T19:44:09.726Z,3.53
2023-04-23T19:46:36.269Z,3.30
2023-04-23T19:49:02.879Z,3.17
2023-04-23T19:51:35.373Z,19.08
2023-04-23T19:54:02.347Z,7.85
2023-04-23T19:56:28.935Z,4.03
2023-04-23T19:58:55.786Z,2.50
2023-04-23T20:01:22.670Z,2.53
2023-04-23T20:03:51.873Z,3.60
2023-04-23T20:06:18.691Z,3.90
2023-04-23T20:09:14.352Z,3.47
2023-04-23T20:11:40.865Z,3.75
2023-04-23T20:14:07.479Z,2.70
2023-04-23T20:16:34.380Z,2.65
2023-04-23T20:19:01.910Z,3.10
2023-04-23T20:21:28.466Z,2.75
2023-04-23T20:23:54.976Z,3.10
2023-04-23T20:26:21.648Z,4.32
2023-04-23T20:28:50.033Z,3.78
2023-04-23T20:31:16.533Z,3.47
2023-04-23T20:33:43.101Z,4.70
2023-04-23T20:36:11.000Z,2.42
2023-04-23T20:38:38.308Z,3.30
2023-04-23T20:41:05.844Z,2.70
2023-04-23T20:43:34.412Z,3.00
2023-04-23T20:46:01.284Z,3.40
2023-04-23T20:48:29.468Z,1.75
2023-04-23T20:50:57.202Z,2.05
2023-04-23T20:53:24.265Z,3.00
2023-04-23T20:55:50.869Z,2.25
2023-04-23T20:58:17.627Z,2.30
2023-04-23T21:00:44.434Z,2.25
2023-04-23T21:03:11.972Z,2.30
2023-04-23T21:05:40.394Z,2.33
2023-04-23T21:08:07.987Z,1.40
2023-04-23T21:10:34.584Z,2.00
2023-04-23T21:13:01.713Z,2.15
2023-04-23T21:15:29.732Z,2.30
2023-04-23T21:17:56.590Z,2.72
2023-04-23T21:20:23.461Z,2.28
2023-04-23T21:22:50.097Z,2.10
2023-04-23T21:25:16.822Z,2.40
2023-04-23T21:27:46.041Z,1.95
2023-04-23T21:30:24.670Z,2.22
2023-04-23T21:32:52.214Z,2.38
2023-04-23T21:35:19.007Z,2.40
2023-04-23T21:37:45.588Z,2.30
2023-04-23T21:40:12.766Z,2.15
2023-04-23T21:42:39.371Z,2.75
2023-04-23T21:45:06.564Z,3.05
2023-04-23T21:47:33.167Z,2.35
2023-04-23T21:50:01.434Z,2.13
2023-04-23T21:52:27.940Z,2.00
2023-04-23T21:54:54.464Z,2.33
2023-04-23T21:57:21.025Z,2.00
2023-04-23T21:59:47.655Z,1.65
2023-04-23T22:02:14.767Z,2.13
2023-04-23T22:04:41.529Z,2.05
2023-04-23T22:07:13.041Z,1.67
2023-04-23T22:09:41.367Z,1.98
2023-04-23T22:12:09.483Z,1.80
2023-04-23T22:14:36.001Z,3.22
2023-04-23T22:17:03.538Z,2.03
2023-04-23T22:19:31.277Z,1.80
2023-04-23T22:21:58.217Z,1.60
2023-04-23T22:24:24.843Z,1.75
2023-04-23T22:26:51.655Z,2.28
2023-04-23T22:29:18.244Z,1.60
2023-04-23T22:31:45.007Z,1.83
2023-04-23T22:34:11.728Z,2.40
2023-04-23T22:36:38.319Z,2.17
2023-04-23T22:39:05.843Z,1.50
2023-04-23T22:41:33.771Z,2.15
2023-04-23T22:44:00.912Z,1.38
2023-04-23T22:46:28.053Z,1.90
2023-04-23T22:48:54.742Z,1.50
2023-04-23T22:51:21.293Z,2.10
2023-04-23T22:53:47.832Z,1.33
2023-04-23T22:56:14.383Z,1.80
2023-04-23T22:58:40.993Z,1.92
2023-04-23T23:01:07.562Z,1.70
2023-04-23T23:03:34.335Z,1.45
2023-04-23T23:06:00.921Z,1.42
2023-04-23T23:08:27.406Z,2.08
2023-04-23T23:10:54.007Z,2.33
2023-04-23T23:13:20.695Z,1.67
2023-04-23T23:15:49.165Z,2.03
2023-04-23T23:18:16.109Z,2.17
2023-04-23T23:20:44.698Z,2.05
2023-04-23T23:23:11.289Z,2.13
2023-04-23T23:25:38.385Z,2.72
2023-04-23T23:28:05.296Z,1.88
2023-04-23T23:30:31.983Z,2.33
2023-04-23T23:32:58.825Z,2.92
2023-04-23T23:35:25.489Z,2.78
2023-04-23T23:37:52.749Z,2.25
2023-04-23T23:40:19.441Z,1.95
2023-04-23T23:42:46.017Z,3.17
2023-04-23T23:45:12.561Z,2.03
2023-04-23T23:47:39.169Z,1.90
2023-04-23T23:50:06.715Z,2.58
2023-04-23T23:52:33.315Z,2.40
2023-04-23T23:54:59.850Z,2.25
2023-04-23T23:57:26.561Z,2.10
2023-04-23T23:59:53.072Z,2.58
